createdAt,value
2023-05-11T00:01:29.716Z,101205.09
2023-05-11T00:03:56.649Z,101209.47
2023-05-11T00:06:23.514Z,101199.88
2023-05-11T00:08:50.449Z,101199.44
2023-05-11T00:11:18.658Z,101197.78
2023-05-11T00:13:45.842Z,101200.28
2023-05-11T00:16:12.798Z,101203.59
2023-05-11T00:18:39.534Z,101187.31
2023-05-11T00:21:06.237Z,101197.53
2023-05-11T00:23:33.150Z,101186.22
2023-05-11T00:25:59.756Z,101192.69
2023-05-11T00:28:26.492Z,101188.94
2023-05-11T00:30:57.549Z,101190.63
2023-05-11T00:33:24.782Z,101193.13
2023-05-11T00:35:51.812Z,101188.50
2023-05-11T00:38:18.561Z,101192.91
2023-05-11T00:40:45.470Z,101180.38
2023-05-11T00:43:12.144Z,101190.19
2023-05-11T00:45:39.969Z,101190.41
2023-05-11T00:48:07.154Z,101183.09
2023-05-11T00:50:35.901Z,101192.69
2023-05-11T00:53:03.040Z,101192.47
2023-05-11T00:55:30.582Z,101193.94
2023-05-11T00:57:57.366Z,101189.75
2023-05-11T01:00:23.986Z,101198.13
2023-05-11T01:02:50.857Z,101196.84
2023-05-11T01:05:17.988Z,101195.19
2023-05-11T01:07:50.777Z,101202.50
2023-05-11T01:10:33.058Z,101208.13
2023-05-11T01:13:05.423Z,101196.41
2023-05-11T01:15:48.081Z,101187.03
2023-05-11T01:18:25.347Z,101202.06
2023-05-11T01:20:59.941Z,101205.63
2023-05-11T01:23:48.905Z,101203.13
2023-05-11T01:26:37.072Z,101209.63
2023-05-11T01:29:22.688Z,101203.75
2023-05-11T01:31:53.410Z,101204.81
2023-05-11T01:34:24.670Z,101208.59
2023-05-11T01:36:56.134Z,101203.34
2023-05-11T01:39:33.024Z,101204.63
2023-05-11T01:42:10.385Z,101207.56
2023-05-11T01:44:44.365Z,101205.91
2023-05-11T01:47:13.524Z,101206.91
2023-05-11T01:49:44.273Z,101197.13
2023-05-11T01:52:11.516Z,101220.94
2023-05-11T01:54:40.709Z,101222.41
2023-05-11T01:57:09.546Z,101218.44
2023-05-11T01:59:39.424Z,101227.66
2023-05-11T02:02:08.548Z,101235.19
2023-05-11T02:04:38.763Z,101234.75
2023-05-11T02:07:08.194Z,101232.25
2023-05-11T02:09:36.640Z,101232.50
2023-05-11T02:12:05.449Z,101241.25
2023-05-11T02:14:34.888Z,101228.72
2023-05-11T02:17:03.890Z,101234.16
2023-05-11T02:19:33.979Z,101243.75
2023-05-11T02:22:02.190Z,101240.41
2023-05-11T02:24:31.460Z,101239.81
2023-05-11T02:26:59.118Z,101241.66
2023-05-11T02:29:26.463Z,101245.88
2023-05-11T02:32:03.420Z,101244.38
2023-05-11T02:34:37.417Z,101254.41
2023-05-11T02:37:09.919Z,101247.72
2023-05-11T02:39:36.808Z,101247.94
2023-05-11T02:42:22.104Z,101255.44
2023-05-11T02:45:09.431Z,101255.81
2023-05-11T02:47:56.765Z,101256.66
2023-05-11T02:50:25.634Z,101247.84
2023-05-11T02:52:56.943Z,101247.38
2023-05-11T02:55:24.048Z,101251.28
2023-05-11T02:57:50.740Z,101253.75
2023-05-11T03:00:18.216Z,101255.59
2023-05-11T03:02:45.353Z,101256.16
2023-05-11T03:05:12.165Z,101256.72
2023-05-11T03:07:38.788Z,101252.53
2023-05-11T03:10:06.377Z,101255.19
2023-05-11T03:12:34.662Z,101257.66
2023-05-11T03:15:04.060Z,101265.84
2023-05-11T03:17:31.508Z,101263.94
2023-05-11T03:19:59.761Z,101269.81
2023-05-11T03:22:27.785Z,101275.47
2023-05-11T03:24:54.670Z,101266.94
2023-05-11T03:27:22.138Z,101276.75
2023-05-11T03:29:50.442Z,101267.97
2023-05-11T03:32:17.246Z,101265.91
2023-05-11T03:34:44.112Z,101270.50
2023-05-11T03:37:13.290Z,101269.94
2023-05-11T03:39:43.923Z,101272.22
2023-05-11T03:42:13.728Z,101268.06
2023-05-11T03:44:42.643Z,101236.72
2023-05-11T03:47:10.406Z,101265.22
2023-05-11T03:49:38.865Z,101263.56
2023-05-11T03:52:07.168Z,101260.22
2023-05-11T03:54:34.225Z,101263.59
2023-05-11T03:57:01.269Z,101265.06
2023-05-11T03:59:27.796Z,101263.63
2023-05-11T04:01:55.162Z,101264.06
2023-05-11T04:04:29.640Z,101269.31
2023-05-11T04:06:56.497Z,101272.41
2023-05-11T04:09:23.175Z,101277.06
2023-05-11T04:11:50.365Z,101274.13
2023-05-11T04:14:17.735Z,101259.97
2023-05-11T04:16:45.070Z,101279.19
2023-05-11T04:19:11.842Z,101279.19
2023-05-11T04:21:39.259Z,101272.53
2023-05-11T04:24:06.449Z,101288.88
2023-05-11T04:26:33.893Z,101294.72
2023-05-11T04:29:02.139Z,101288.44
2023-05-11T04:31:30.741Z,101290.38
2023-05-11T04:33:57.441Z,101274.47
2023-05-11T04:36:24.236Z,101289.72
2023-05-11T04:38:50.982Z,101293.69
2023-05-11T04:41:17.648Z,101290.97
2023-05-11T04:43:44.463Z,101288.69
2023-05-11T04:46:12.844Z,101283.88
2023-05-11T04:48:39.667Z,101299.31
2023-05-11T04:51:06.496Z,101297.66
2023-05-11T04:53:33.604Z,101311.44
2023-05-11T04:56:00.418Z,101309.75
2023-05-11T04:58:27.182Z,101301.41
2023-05-11T05:00:54.003Z,101298.22
2023-05-11T05:03:20.982Z,101293.63
2023-05-11T05:05:48.001Z,101297.56
2023-05-11T05:08:14.728Z,101296.50
2023-05-11T05:10:41.482Z,101313.66
2023-05-11T05:13:08.380Z,101301.50
2023-05-11T05:15:35.182Z,101300.44
2023-05-11T05:18:01.835Z,101298.97
2023-05-11T05:20:28.513Z,101309.81
2023-05-11T05:22:58.966Z,101308.13
2023-05-11T05:25:25.598Z,101303.72
2023-05-11T05:27:52.235Z,101303.34
2023-05-11T05:30:19.070Z,101315.22
2023-05-11T05:32:45.966Z,101308.25
2023-05-11T05:35:13.188Z,101312.81
2023-05-11T05:37:40.871Z,101311.28
2023-05-11T05:40:09.062Z,101315.78
2023-05-11T05:42:35.814Z,101325.69
2023-05-11T05:45:02.401Z,101328.66
2023-05-11T05:47:29.204Z,101322.22
2023-05-11T05:49:55.833Z,101325.38
2023-05-11T05:52:22.504Z,101332.00
2023-05-11T05:54:49.083Z,101341.09
2023-05-11T05:57:16.084Z,101340.69
2023-05-11T05:59:42.717Z,101346.50
2023-05-11T06:02:09.379Z,101349.03
2023-05-11T06:04:36.237Z,101357.00
2023-05-11T06:07:03.150Z,101345.31
2023-05-11T06:09:29.779Z,101352.38
2023-05-11T06:11:57.344Z,101350.97
2023-05-11T06:14:25.016Z,101354.53
2023-05-11T06:16:51.689Z,101353.66
2023-05-11T06:19:18.360Z,101360.19
2023-05-11T06:21:46.463Z,101364.47
2023-05-11T06:24:13.216Z,101354.03
2023-05-11T06:26:41.021Z,101343.47
2023-05-11T06:29:08.102Z,101358.25
2023-05-11T06:31:37.756Z,101351.38
2023-05-11T06:34:04.590Z,101365.13
2023-05-11T06:36:32.328Z,101358.63
2023-05-11T06:38:59.121Z,101368.50
2023-05-11T06:41:26.042Z,101353.66
2023-05-11T06:43:52.722Z,101359.94
2023-05-11T06:46:19.553Z,101350.44
2023-05-11T06:48:46.292Z,101359.69
2023-05-11T06:51:13.013Z,101355.59
2023-05-11T06:53:39.822Z,101351.84
2023-05-11T06:56:07.169Z,101343.72
2023-05-11T06:58:34.753Z,101355.34
2023-05-11T07:01:02.398Z,101356.59
2023-05-11T07:03:29.082Z,101361.00
2023-05-11T07:05:55.991Z,101344.63
2023-05-11T07:08:22.539Z,101357.63
2023-05-11T07:10:49.282Z,101362.19
2023-05-11T07:13:15.975Z,101361.97
2023-05-11T07:15:42.612Z,101366.09
2023-05-11T07:18:09.403Z,101365.53
2023-05-11T07:20:38.069Z,101376.34
2023-05-11T07:23:04.610Z,101366.63
2023-05-11T07:25:31.831Z,101361.31
2023-05-11T07:27:58.634Z,101362.25
2023-05-11T07:30:26.157Z,101367.06
2023-05-11T07:32:53.403Z,101368.53
2023-05-11T07:35:22.110Z,101369.19
2023-05-11T07:37:50.007Z,101373.41
2023-05-11T07:40:16.719Z,101371.59
2023-05-11T07:42:43.876Z,101363.56
2023-05-11T07:45:10.716Z,101371.91
2023-05-11T07:47:37.337Z,101371.34
2023-05-11T07:50:04.448Z,101378.22
2023-05-11T07:52:31.070Z,101380.72
2023-05-11T07:54:57.670Z,101385.78
2023-05-11T07:57:25.377Z,101383.56
2023-05-11T07:59:53.006Z,101380.00
2023-05-11T08:02:19.675Z,101388.44
2023-05-11T08:04:46.340Z,101387.16
2023-05-11T08:07:13.046Z,101386.53
2023-05-11T08:09:39.724Z,101384.03
2023-05-11T08:12:06.438Z,101378.19
2023-05-11T08:14:33.195Z,101382.59
2023-05-11T08:16:59.920Z,101378.06
2023-05-11T08:19:26.848Z,101384.50
2023-05-11T08:21:53.646Z,101375.69
2023-05-11T08:24:20.368Z,101378.88
2023-05-11T08:26:47.289Z,101385.66
2023-05-11T08:29:14.575Z,101377.38
2023-05-11T08:31:41.343Z,101387.00
2023-05-11T08:34:18.478Z,101381.03
2023-05-11T08:36:46.882Z,101383.19
2023-05-11T08:39:13.591Z,101380.91
2023-05-11T08:41:40.268Z,101390.97
2023-05-11T08:44:07.977Z,101374.69
2023-05-11T08:46:40.115Z,101383.50
2023-05-11T08:49:10.405Z,101385.72
2023-05-11T08:51:37.245Z,101370.38
2023-05-11T08:54:04.456Z,101379.03
2023-05-11T08:56:32.011Z,101379.28
2023-05-11T08:58:58.940Z,101382.16
2023-05-11T09:01:30.670Z,101390.97
2023-05-11T09:03:58.676Z,101391.66
2023-05-11T09:06:27.427Z,101376.31
2023-05-11T09:08:54.984Z,101379.91
2023-05-11T09:11:23.209Z,101374.41
2023-05-11T09:13:50.389Z,101369.41
2023-05-11T09:16:32.942Z,101381.09
2023-05-11T09:19:03.535Z,101374.25
2023-05-11T09:21:31.147Z,101381.41
2023-05-11T09:24:01.420Z,101375.97
2023-05-11T09:26:29.858Z,101380.88
2023-05-11T09:29:02.881Z,101374.78
2023-05-11T09:31:46.559Z,101379.69
2023-05-11T09:34:17.694Z,101372.44
2023-05-11T09:36:47.652Z,101379.75
2023-05-11T09:39:16.704Z,101373.75
2023-05-11T09:41:43.688Z,101371.72
2023-05-11T09:44:12.899Z,101373.94
2023-05-11T09:46:41.460Z,101372.13
2023-05-11T09:49:08.816Z,101370.28
2023-05-11T09:51:38.260Z,101359.09
2023-05-11T09:54:19.696Z,101365.53
2023-05-11T09:56:52.568Z,101365.00
2023-05-11T09:59:37.866Z,101364.84
2023-05-11T10:02:21.527Z,101352.63
2023-05-11T10:04:51.102Z,101355.97
2023-05-11T10:07:28.380Z,101356.56
2023-05-11T10:09:58.224Z,101359.88
2023-05-11T10:12:26.558Z,101355.13
2023-05-11T10:14:58.822Z,101350.16
2023-05-11T10:17:25.879Z,101352.72
2023-05-11T10:19:56.105Z,101349.56
2023-05-11T10:22:26.198Z,101350.38
2023-05-11T10:24:56.759Z,101352.19
2023-05-11T10:27:25.019Z,101343.53
2023-05-11T10:29:51.959Z,101335.66
2023-05-11T10:32:19.777Z,101340.25
2023-05-11T10:34:48.798Z,101345.22
2023-05-11T10:37:16.496Z,101329.56
2023-05-11T10:39:46.121Z,101344.00
2023-05-11T10:42:39.830Z,101350.09
2023-05-11T10:45:43.597Z,101354.47
2023-05-11T10:48:50.934Z,101344.53
2023-05-11T10:51:51.808Z,101346.94
2023-05-11T10:54:40.955Z,101336.31
2023-05-11T10:57:36.290Z,101327.47
2023-05-11T11:00:47.899Z,101327.56
2023-05-11T11:03:16.399Z,101327.38
2023-05-11T11:05:44.093Z,101334.34
2023-05-11T11:08:11.731Z,101324.16
2023-05-11T11:10:49.403Z,101339.00
2023-05-11T11:13:18.548Z,101337.13
2023-05-11T11:15:55.500Z,101339.16
2023-05-11T11:18:24.446Z,101332.22
2023-05-11T11:20:53.504Z,101344.13
2023-05-11T11:23:55.574Z,101341.59
2023-05-11T11:26:47.407Z,101338.53
2023-05-11T11:29:14.147Z,101334.88
2023-05-11T11:31:41.899Z,101332.16
2023-05-11T11:34:27.444Z,101329.91
2023-05-11T11:37:03.908Z,101330.06
2023-05-11T11:40:09.534Z,101324.94
2023-05-11T11:42:42.749Z,101335.75
2023-05-11T11:45:33.315Z,101338.63
2023-05-11T11:48:24.027Z,101338.84
2023-05-11T11:51:02.980Z,101343.16
2023-05-11T11:53:40.840Z,101350.78
2023-05-11T11:56:28.530Z,101339.00
2023-05-11T11:59:05.073Z,101349.22
2023-05-11T12:01:42.811Z,101344.53
2023-05-11T12:04:39.354Z,101341.66
2023-05-11T12:07:09.215Z,101346.66
2023-05-11T12:09:37.336Z,101349.59
2023-05-11T12:12:06.290Z,101357.03
2023-05-11T12:14:34.114Z,101343.81
2023-05-11T12:17:05.936Z,101344.13
2023-05-11T12:19:32.842Z,101323.91
2023-05-11T12:21:59.605Z,101318.84
2023-05-11T12:24:26.772Z,101337.38
2023-05-11T12:26:56.766Z,101340.16
2023-05-11T12:29:23.701Z,101336.66
2023-05-11T12:31:50.316Z,101341.69
2023-05-11T12:34:18.807Z,101322.69
2023-05-11T12:36:46.981Z,101325.16
2023-05-11T12:39:21.683Z,101322.06
2023-05-11T12:41:50.081Z,101326.25
2023-05-11T12:44:18.191Z,101321.38
2023-05-11T12:46:48.713Z,101317.22
2023-05-11T12:49:34.232Z,101321.59
2023-05-11T12:52:03.233Z,101333.09
2023-05-11T12:54:32.805Z,101330.34
2023-05-11T12:57:01.122Z,101297.75
2023-05-11T12:59:34.511Z,101321.94
2023-05-11T13:02:18.076Z,101326.78
2023-05-11T13:04:45.954Z,101321.59
2023-05-11T13:07:14.299Z,101321.91
2023-05-11T13:09:41.761Z,101329.84
2023-05-11T13:12:18.473Z,101320.38
2023-05-11T13:14:48.910Z,101321.13
2023-05-11T13:17:35.210Z,101313.72
2023-05-11T13:20:27.038Z,101318.84
2023-05-11T13:23:11.589Z,101307.66
2023-05-11T13:25:48.861Z,101314.06
2023-05-11T13:28:17.057Z,101304.81
2023-05-11T13:30:44.920Z,101312.75
2023-05-11T13:33:15.270Z,101313.13
2023-05-11T13:35:42.740Z,101315.13
2023-05-11T13:38:10.807Z,101316.84
2023-05-11T13:40:38.324Z,101318.94
2023-05-11T13:43:05.091Z,101303.47
2023-05-11T13:45:33.238Z,101310.53
2023-05-11T13:48:00.415Z,101309.28
2023-05-11T13:50:27.080Z,101310.53
2023-05-11T13:52:54.314Z,101316.84
2023-05-11T13:55:21.674Z,101306.97
2023-05-11T13:57:50.047Z,101311.63
2023-05-11T14:00:17.395Z,101310.66
2023-05-11T14:02:45.251Z,101315.06
2023-05-11T14:05:12.034Z,101309.63
2023-05-11T14:07:46.394Z,101307.44
2023-05-11T14:10:14.482Z,101314.19
2023-05-11T14:12:41.775Z,101310.72
2023-05-11T14:15:10.044Z,101307.09
2023-05-11T14:17:37.233Z,101309.31
2023-05-11T14:20:05.221Z,101305.66
2023-05-11T14:22:33.210Z,101306.00
2023-05-11T14:25:00.058Z,101307.97
2023-05-11T14:27:26.898Z,101315.81
2023-05-11T14:29:54.294Z,101307.97
2023-05-11T14:32:21.902Z,101305.22
2023-05-11T14:34:50.988Z,101299.53
2023-05-11T14:37:18.688Z,101303.19
2023-05-11T14:39:45.552Z,101296.13
2023-05-11T14:42:12.361Z,101302.09
2023-05-11T14:44:39.260Z,101284.16
2023-05-11T14:47:06.399Z,101298.25
2023-05-11T14:49:33.057Z,101304.53
2023-05-11T14:51:59.858Z,101288.16
2023-05-11T14:54:26.654Z,101298.41
2023-05-11T14:56:55.455Z,101298.28
2023-05-11T14:59:26.139Z,101299.03
2023-05-11T15:01:55.158Z,101304.78
2023-05-11T15:04:22.585Z,101309.97
2023-05-11T15:06:49.315Z,101303.84
2023-05-11T15:09:17.566Z,101300.28
2023-05-11T15:11:44.235Z,101314.41
2023-05-11T15:14:11.544Z,101310.22
2023-05-11T15:16:38.543Z,101307.59
2023-05-11T15:19:07.121Z,101316.81
2023-05-11T15:21:37.297Z,101313.28
2023-05-11T15:24:04.591Z,101310.03
2023-05-11T15:26:31.327Z,101316.19
2023-05-11T15:29:00.490Z,101313.41
2023-05-11T15:31:30.270Z,101323.53
2023-05-11T15:33:57.736Z,101317.63
2023-05-11T15:36:24.541Z,101309.13
2023-05-11T15:38:51.439Z,101309.59
2023-05-11T15:41:20.508Z,101308.19
2023-05-11T15:43:49.753Z,101316.06
2023-05-11T15:46:16.675Z,101314.00
2023-05-11T15:48:43.613Z,101310.03
2023-05-11T15:51:15.087Z,101322.91
2023-05-11T15:53:41.954Z,101312.19
2023-05-11T15:56:10.979Z,101295.91
2023-05-11T15:58:38.663Z,101322.03
2023-05-11T16:01:06.366Z,101315.19
2023-05-11T16:03:33.515Z,101322.91
2023-05-11T16:06:00.387Z,101325.66
2023-05-11T16:08:29.311Z,101323.34
2023-05-11T16:10:56.736Z,101326.94
2023-05-11T16:13:24.559Z,101319.47
2023-05-11T16:15:52.291Z,101316.78
2023-05-11T16:18:19.968Z,101328.41
2023-05-11T16:20:47.789Z,101328.44
2023-05-11T16:23:14.466Z,101320.16
2023-05-11T16:25:42.637Z,101322.94
2023-05-11T16:28:09.444Z,101332.09
2023-05-11T16:30:37.459Z,101328.75
2023-05-11T16:33:05.641Z,101327.94
2023-05-11T16:35:36.426Z,101331.81
2023-05-11T16:38:05.382Z,101332.34
2023-05-11T16:40:32.337Z,101329.56
2023-05-11T16:43:02.381Z,101330.69
2023-05-11T16:45:35.185Z,101336.22
2023-05-11T16:48:02.045Z,101338.75
2023-05-11T16:50:28.723Z,101337.63
2023-05-11T16:52:59.797Z,101337.06
2023-05-11T16:55:28.169Z,101349.81
2023-05-11T16:57:55.163Z,101342.63
2023-05-11T17:00:23.201Z,101344.56
2023-05-11T17:02:50.691Z,101344.84
2023-05-11T17:05:20.605Z,101351.19
2023-05-11T17:07:49.137Z,101349.53
2023-05-11T17:10:16.443Z,101351.72
2023-05-11T17:12:44.720Z,101351.75
2023-05-11T17:15:12.037Z,101356.72
2023-05-11T17:17:39.284Z,101353.91
2023-05-11T17:20:10.270Z,101361.09
2023-05-11T17:22:37.905Z,101350.63
2023-05-11T17:25:07.397Z,101352.19
2023-05-11T17:27:37.558Z,101372.03
2023-05-11T17:30:05.937Z,101375.31
2023-05-11T17:32:33.414Z,101377.78
2023-05-11T17:35:04.104Z,101384.91
2023-05-11T17:37:32.430Z,101384.31
2023-05-11T17:40:01.656Z,101392.53
2023-05-11T17:42:28.546Z,101392.81
2023-05-11T17:44:56.100Z,101394.69
2023-05-11T17:47:22.805Z,101390.50
2023-05-11T17:49:49.649Z,101407.06
2023-05-11T17:52:17.130Z,101393.78
2023-05-11T17:54:44.015Z,101404.72
2023-05-11T17:57:13.242Z,101405.91
2023-05-11T17:59:41.497Z,101406.09
2023-05-11T18:02:09.476Z,101409.25
2023-05-11T18:04:36.206Z,101403.31
2023-05-11T18:07:04.603Z,101414.19
2023-05-11T18:09:31.282Z,101412.59
2023-05-11T18:11:57.895Z,101404.44
2023-05-11T18:14:25.080Z,101417.78
2023-05-11T18:16:53.079Z,101417.63
2023-05-11T18:19:19.720Z,101415.50
2023-05-11T18:21:46.712Z,101414.50
2023-05-11T18:24:15.232Z,101413.38
2023-05-11T18:26:42.324Z,101429.25
2023-05-11T18:29:10.114Z,101431.53
2023-05-11T18:31:38.666Z,101431.88
2023-05-11T18:34:06.529Z,101435.94
2023-05-11T18:36:35.216Z,101451.75
2023-05-11T18:39:04.076Z,101417.00
2023-05-11T18:41:30.791Z,101453.69
2023-05-11T18:43:59.056Z,101456.81
2023-05-11T18:46:27.502Z,101467.81
2023-05-11T18:48:54.571Z,101468.31
2023-05-11T18:51:25.685Z,101476.00
2023-05-11T18:53:55.307Z,101478.53
2023-05-11T18:56:22.535Z,101489.81
2023-05-11T18:58:50.478Z,101475.56
2023-05-11T19:01:18.782Z,101489.63
2023-05-11T19:03:46.363Z,101497.72
2023-05-11T19:06:14.704Z,101497.84
2023-05-11T19:08:42.344Z,101498.06
2023-05-11T19:11:10.579Z,101499.75
2023-05-11T19:13:37.325Z,101515.44
2023-05-11T19:16:04.969Z,101498.59
2023-05-11T19:18:35.710Z,101516.94
2023-05-11T19:21:04.847Z,101518.59
2023-05-11T19:23:35.580Z,101526.66
2023-05-11T19:26:06.497Z,101520.31
2023-05-11T19:28:35.575Z,101523.84
2023-05-11T19:31:04.911Z,101533.00
2023-05-11T19:33:32.149Z,101541.69
2023-05-11T19:35:59.734Z,101543.13
2023-05-11T19:38:26.773Z,101548.75
2023-05-11T19:40:53.801Z,101551.00
2023-05-11T19:43:21.760Z,101555.94
2023-05-11T19:45:49.886Z,101551.38
2023-05-11T19:48:19.450Z,101557.06
2023-05-11T19:50:47.702Z,101559.25
2023-05-11T19:53:14.425Z,101574.97
2023-05-11T19:55:44.084Z,101567.38
2023-05-11T19:58:12.147Z,101573.59
2023-05-11T20:00:41.381Z,101561.81
2023-05-11T20:03:09.441Z,101570.31
2023-05-11T20:05:36.760Z,101565.81
2023-05-11T20:08:05.866Z,101571.09
2023-05-11T20:10:34.846Z,101564.56
2023-05-11T20:13:07.094Z,101576.41
2023-05-11T20:15:36.899Z,101575.56
2023-05-11T20:18:07.927Z,101577.47
2023-05-11T20:20:34.689Z,101578.31
2023-05-11T20:23:02.418Z,101580.56
2023-05-11T20:25:30.162Z,101589.69
2023-05-11T20:27:56.901Z,101590.00
2023-05-11T20:30:23.851Z,101587.50
2023-05-11T20:35:20.250Z,101587.78
2023-05-11T20:37:48.584Z,101581.59
2023-05-11T20:40:15.551Z,101603.50
2023-05-11T20:42:42.153Z,101598.94
2023-05-11T20:45:11.329Z,101601.28
2023-05-11T20:47:38.097Z,101606.13
2023-05-11T20:50:09.554Z,101602.13
2023-05-11T20:52:39.446Z,101603.78
2023-05-11T20:55:11.621Z,101608.47
2023-05-11T20:57:38.866Z,101607.06
2023-05-11T21:00:08.585Z,101610.91
2023-05-11T21:02:35.416Z,101595.06
2023-05-11T21:05:02.529Z,101616.47
2023-05-11T21:07:29.998Z,101612.13
2023-05-11T21:09:56.732Z,101619.31
2023-05-11T21:12:23.458Z,101615.56
2023-05-11T21:14:50.008Z,101618.75
2023-05-11T21:17:16.749Z,101624.69
2023-05-11T21:19:43.492Z,101616.31
2023-05-11T21:22:10.093Z,101621.59
2023-05-11T21:24:37.769Z,101628.06
2023-05-11T21:27:04.898Z,101623.88
2023-05-11T21:29:31.602Z,101625.97
2023-05-11T21:31:58.255Z,101622.19
2023-05-11T21:34:25.899Z,101623.88
2023-05-11T21:36:52.627Z,101626.59
2023-05-11T21:39:19.202Z,101630.41
2023-05-11T21:41:45.946Z,101631.22
2023-05-11T21:44:12.555Z,101629.59
2023-05-11T21:46:39.231Z,101632.75
2023-05-11T21:49:06.172Z,101629.59
2023-05-11T21:51:33.549Z,101635.69
2023-05-11T21:54:00.238Z,101612.28
2023-05-11T21:56:26.948Z,101634.44
2023-05-11T21:58:53.478Z,101636.53
2023-05-11T22:01:21.113Z,101636.97
2023-05-11T22:03:47.824Z,101647.84
2023-05-11T22:06:14.517Z,101633.84
2023-05-11T22:08:41.095Z,101646.41
2023-05-11T22:11:07.919Z,101644.31
2023-05-11T22:13:34.604Z,101638.88
2023-05-11T22:16:01.406Z,101654.78
2023-05-11T22:18:28.026Z,101648.06
2023-05-11T22:20:54.910Z,101651.63
2023-05-11T22:23:21.676Z,101658.31
2023-05-11T22:25:48.260Z,101657.47
2023-05-11T22:28:14.900Z,101659.56
2023-05-11T22:30:41.605Z,101666.69
2023-05-11T22:33:08.169Z,101664.81
2023-05-11T22:35:34.892Z,101660.41
2023-05-11T22:38:01.993Z,101665.44
2023-05-11T22:40:28.638Z,101660.81
2023-05-11T22:42:55.326Z,101668.38
2023-05-11T22:45:22.033Z,101675.06
2023-05-11T22:47:48.855Z,101672.56
2023-05-11T22:50:15.721Z,101681.34
2023-05-11T22:52:42.366Z,101678.00
2023-05-11T22:55:09.643Z,101681.16
2023-05-11T22:57:36.190Z,101672.34
2023-05-11T23:00:04.005Z,101678.00
2023-05-11T23:02:30.806Z,101675.06
2023-05-11T23:04:57.589Z,101677.56
2023-05-11T23:07:24.227Z,101678.44
2023-05-11T23:09:52.882Z,101681.16
2023-05-11T23:12:19.758Z,101677.38
2023-05-11T23:14:47.437Z,101683.22
2023-05-11T23:17:14.062Z,101677.38
2023-05-11T23:19:40.816Z,101682.19
2023-05-11T23:22:07.620Z,101683.88
2023-05-11T23:24:34.711Z,101671.09
2023-05-11T23:27:01.505Z,101683.88
2023-05-11T23:29:28.176Z,101689.53
2023-05-11T23:31:55.968Z,101685.09
2023-05-11T23:34:22.595Z,101677.78
2023-05-11T23:36:49.320Z,101689.88
2023-05-11T23:39:15.955Z,101676.09
2023-05-11T23:41:42.674Z,101691.81
2023-05-11T23:44:09.373Z,101693.28
2023-05-11T23:46:36.306Z,101699.56
2023-05-11T23:49:03.573Z,101681.16
2023-05-11T23:51:30.569Z,101672.56
2023-05-11T23:53:57.238Z,101698.31
2023-05-11T23:56:23.981Z,101701.47
2023-05-11T23:58:50.708Z,101699.00
